Terminal Aerodrome Forecast
Issued by NWS

Home | Current Version | Previous Version | Text Only | Print | Product List | Glossary Off
Versions: 1 2 3 4 5 6 7 8 9 10 11 12 13 14 15 16

000
FTUS44 KTSA 041720
TAFFYV
TAF
KFYV 041720Z 0418/0518 VRB05KT P6SM SCT050
     FM050300 16003KT P6SM FEW250
      TEMPO 0511/0515 4SM BR
     FM051500 16005KT P6SM SCT050=

USA.gov is the U.S. government's official web portal to all federal, state and local government web resources and services.